7小时前
罗盘
风向 的 风向 210° 科托卡国际机场 3/21
风: 11 千吨, 4 beaufort
0 0 0.17778093859221 500 0.32299085377319 1.500 0.47075341907445 3.000 0.62138884920159 5.000 0.8022287624727 8.000 0.90566318494517 10.000
SCT 1.500 ft
METAR DGAA 202200Z 21011KT 9999 SCT015 27/25 Q1014 NOSIG

METAR定义 | 嵌入

24小时趋势

航班类别VFRLIFR
温度30 °C25 °C
风速15 千吨0 千吨
能见度10 公里+0 米

更多历史数据

下载我们的安卓应用程序

从你的主屏幕上轻松地访问你的航空天气。
只需一次付费,您就可以获得无广告的体验。

您会帮助我们保持Metar-Taf.com正常运行吗?
您的贡献有助于网站的进一步开发并支付费用。

没有更多广告

您是捐款5美元还是更多?然后,我们将永远不会再向您展示广告,这是我们永恒的感谢!
捐赠前先登录

METAR 科托卡国际机场

科托卡国际机场是Accra,加纳中的大型机场。 机场有{a,plural,=1{一条跑道} other{#跑道}}: 3/21

该报告是针对2021年10月20日 22:00, 当地时间上的科托卡国际机场所做的。

机场观察

风来自南南西 (210°)方向,速度为11 千吨。

可见度为10 公里 或者更多。

有疏云,零星散落的云朵在1.500 ft的高度。 没有观察到天花板。

温度和风寒是27 °C。 热指数为31。 露点为25 °C,相对湿度为89%。 海平面上的气压为1014 压力 (QNH)。

白天

今天,太阳从05:46升起,在17:44降落。 这适用于科托卡国际机场,世界夏令时可能有所不同。 当地时间与世界标准时间之间的时差为+0 小时。 夏令时目前正在进行中。

公司介绍

我们没有关于这个机场的公司信息。

体会

到Vliegles.nl去找飞行课程,跳伞和其他飞行体验。 浏览页面,了解科托卡国际机场附近所有可用的活动。 你也可以使用搜索功能来寻找你所在地附近的特定飞行课程、跳伞或其他飞行体验。

您是否要在网站上科托卡国际机场飞行的天气? 阅读更多   自由!